createdAt,value
2019-02-05T00:00:59.488Z,1.60
2019-02-05T00:03:28.685Z,1.60
2019-02-05T00:05:58.917Z,1.60
2019-02-05T00:08:27.782Z,1.60
2019-02-05T00:10:57.236Z,1.50
2019-02-05T00:13:26.119Z,1.50
2019-02-05T00:15:54.937Z,1.50
2019-02-05T00:18:23.764Z,1.50
2019-02-05T00:20:52.736Z,1.50
2019-02-05T00:23:21.647Z,1.50
2019-02-05T00:25:51.614Z,1.40
2019-02-05T00:28:20.457Z,1.30
2019-02-05T00:30:49.455Z,1.30
2019-02-05T00:33:18.320Z,1.30
2019-02-05T00:35:47.187Z,1.20
2019-02-05T00:38:16.392Z,1.20
2019-02-05T00:40:45.693Z,1.10
2019-02-05T00:43:14.739Z,1.10
2019-02-05T00:45:43.972Z,1.10
2019-02-05T00:48:12.822Z,1.10
2019-02-05T00:50:41.716Z,1.00
2019-02-05T00:53:10.608Z,1.00
2019-02-05T00:55:39.821Z,0.90
2019-02-05T00:58:27.906Z,0.80
2019-02-05T01:00:57.165Z,0.80
2019-02-05T01:03:26.236Z,0.70
2019-02-05T01:05:55.246Z,0.60
2019-02-05T01:08:25.163Z,0.50
2019-02-05T01:10:54.412Z,0.50
2019-02-05T01:13:23.554Z,0.40
2019-02-05T01:15:52.733Z,0.40
2019-02-05T01:18:21.642Z,0.40
2019-02-05T01:20:50.876Z,0.40
2019-02-05T01:23:19.937Z,0.40
2019-02-05T01:25:48.983Z,0.40
2019-02-05T01:28:18.001Z,0.30
2019-02-05T01:30:46.791Z,0.20
2019-02-05T01:33:15.660Z,0.20
2019-02-05T01:35:44.908Z,0.20
2019-02-05T01:38:13.798Z,0.10
2019-02-05T01:40:43.078Z,0.10
2019-02-05T01:43:11.968Z,0.10
2019-02-05T01:45:40.844Z,0.10
2019-02-05T01:48:09.824Z,0.10
2019-02-05T01:50:38.826Z,0.00
2019-02-05T01:53:07.690Z,-0.10
2019-02-05T01:55:36.940Z,-0.20
2019-02-05T01:58:05.916Z,-0.40
2019-02-05T02:00:37.893Z,-0.50
2019-02-05T02:03:07.689Z,-0.60
2019-02-05T02:05:36.963Z,-0.60
2019-02-05T02:08:06.126Z,-0.70
2019-02-05T02:10:34.934Z,-0.70
2019-02-05T02:13:04.265Z,-0.70
2019-02-05T02:15:33.218Z,-0.70
2019-02-05T02:18:02.778Z,-0.70
2019-02-05T02:20:31.648Z,-0.60
2019-02-05T02:23:00.625Z,-0.60
2019-02-05T02:25:29.603Z,-0.60
2019-02-05T02:27:58.524Z,-0.50
2019-02-05T02:30:32.940Z,-0.60
2019-02-05T02:33:02.009Z,-0.60
2019-02-05T02:35:31.229Z,-0.50
2019-02-05T02:38:00.472Z,-0.50
2019-02-05T02:42:55.443Z,-0.70
2019-02-05T02:45:24.343Z,-0.90
2019-02-05T02:47:53.255Z,-1.00
2019-02-05T02:50:22.223Z,-1.10
2019-02-05T02:52:51.545Z,-1.20
2019-02-05T02:55:20.690Z,-1.30
2019-02-05T02:57:49.763Z,-1.30
2019-02-05T03:00:19.942Z,-1.40
2019-02-05T03:02:49.127Z,-1.40
2019-02-05T03:05:19.905Z,-1.40
2019-02-05T03:07:49.253Z,-1.40
2019-02-05T03:10:21.145Z,-1.40
2019-02-05T03:12:50.446Z,-1.40
2019-02-05T03:15:19.720Z,-1.50
2019-02-05T03:17:49.041Z,-1.40
2019-02-05T03:20:18.728Z,-1.40
2019-02-05T03:22:47.584Z,-1.20
2019-02-05T03:25:18.780Z,-1.00
2019-02-05T03:27:48.807Z,-1.00
2019-02-05T03:30:19.288Z,-0.90
2019-02-05T03:32:48.688Z,-0.80
2019-02-05T03:35:19.320Z,-0.90
2019-02-05T03:37:48.329Z,-0.90
2019-02-05T03:41:05.334Z,-0.90
2019-02-05T03:43:36.813Z,-0.90
2019-02-05T03:46:07.753Z,-1.00
2019-02-05T03:48:37.404Z,-1.00
2019-02-05T03:51:49.102Z,-1.10
2019-02-05T03:54:44.109Z,-1.20
2019-02-05T03:57:49.861Z,-1.30
2019-02-05T04:00:57.338Z,-1.40
2019-02-05T04:03:41.576Z,-1.50
2019-02-05T04:06:41.158Z,-1.50
2019-02-05T04:09:34.133Z,-1.60
2019-02-05T04:12:42.376Z,-1.60
2019-02-05T04:15:34.266Z,-1.70
2019-02-05T04:18:40.074Z,-1.80
2019-02-05T04:21:39.012Z,-1.80
2019-02-05T04:24:36.190Z,-1.80
2019-02-05T04:27:26.565Z,-1.70
2019-02-05T04:30:22.275Z,-1.70
2019-02-05T04:33:17.785Z,-1.70
2019-02-05T04:36:31.493Z,-1.80
2019-02-05T04:39:29.560Z,-1.80
2019-02-05T04:42:34.606Z,-1.80
2019-02-05T04:45:33.778Z,-1.80
2019-02-05T04:48:36.253Z,-1.80
2019-02-05T04:51:38.500Z,-1.80
2019-02-05T04:54:35.700Z,-1.90
2019-02-05T04:57:27.846Z,-1.80
2019-02-05T05:00:24.359Z,-1.80
2019-02-05T05:03:33.862Z,-1.70
2019-02-05T05:06:17.808Z,-1.60
2019-02-05T05:09:18.574Z,-1.60
2019-02-05T05:11:47.866Z,-1.50
2019-02-05T05:14:17.125Z,-1.40
2019-02-05T05:16:46.268Z,-1.50
2019-02-05T05:19:15.196Z,-1.50
2019-02-05T05:21:44.443Z,-1.40
2019-02-05T05:24:13.807Z,-1.30
2019-02-05T05:26:42.830Z,-1.20
2019-02-05T05:29:11.829Z,-1.20
2019-02-05T05:31:44.516Z,-1.20
2019-02-05T05:34:13.712Z,-1.10
2019-02-05T05:36:51.431Z,-0.90
2019-02-05T05:39:21.162Z,-0.90
2019-02-05T05:41:50.420Z,-0.80
2019-02-05T05:44:19.582Z,-0.80
2019-02-05T05:46:48.688Z,-0.80
2019-02-05T05:49:17.859Z,-0.80
2019-02-05T05:51:47.146Z,-0.80
2019-02-05T05:54:16.689Z,-0.70
2019-02-05T05:56:45.810Z,-0.70
2019-02-05T05:59:14.793Z,-0.70
2019-02-05T06:01:44.404Z,-0.60
2019-02-05T06:04:14.677Z,-0.60
2019-02-05T06:06:43.738Z,-0.50
2019-02-05T06:09:13.041Z,-0.40
2019-02-05T06:11:42.218Z,-0.50
2019-02-05T06:14:11.085Z,-0.50
2019-02-05T06:16:40.100Z,-0.40
2019-02-05T06:19:09.324Z,-0.40
2019-02-05T06:21:38.114Z,-0.30
2019-02-05T06:24:07.138Z,-0.30
2019-02-05T06:26:36.117Z,-0.20
2019-02-05T06:29:05.083Z,-0.10
2019-02-05T06:31:34.443Z,-0.20
2019-02-05T06:34:03.745Z,-0.10
2019-02-05T06:36:32.685Z,-0.10
2019-02-05T06:39:02.079Z,-0.10
2019-02-05T06:41:30.929Z,-0.10
2019-02-05T06:43:59.716Z,0.00
2019-02-05T06:46:28.650Z,-0.10
2019-02-05T06:48:57.509Z,0.00
2019-02-05T06:51:26.388Z,-0.10
2019-02-05T06:53:55.617Z,-0.10
2019-02-05T06:56:24.770Z,0.00
2019-02-05T06:58:54.000Z,0.00
2019-02-05T07:01:23.174Z,0.10
2019-02-05T07:03:52.689Z,0.10
2019-02-05T07:06:21.813Z,0.10
2019-02-05T07:08:50.743Z,0.10
2019-02-05T07:11:20.022Z,0.10
2019-02-05T07:13:48.914Z,0.10
2019-02-05T07:16:18.150Z,0.20
2019-02-05T07:18:47.796Z,0.20
2019-02-05T07:21:17.095Z,0.20
2019-02-05T07:23:46.048Z,0.30
2019-02-05T07:26:14.900Z,0.30
2019-02-05T07:28:43.857Z,0.30
2019-02-05T07:31:12.876Z,0.30
2019-02-05T07:33:41.761Z,0.40
2019-02-05T07:36:10.715Z,0.40
2019-02-05T07:38:39.697Z,0.40
2019-02-05T07:41:08.665Z,0.40
2019-02-05T07:43:37.561Z,0.50
2019-02-05T07:46:06.885Z,0.50
2019-02-05T07:48:35.831Z,0.60
2019-02-05T07:51:04.758Z,0.60
2019-02-05T07:53:33.535Z,0.60
2019-02-05T07:56:02.881Z,0.60
2019-02-05T07:58:31.683Z,0.70
2019-02-05T08:01:00.542Z,0.70
2019-02-05T08:03:29.798Z,0.70
2019-02-05T08:05:59.228Z,0.70
2019-02-05T08:08:28.195Z,0.70
2019-02-05T08:10:57.264Z,0.70
2019-02-05T08:13:26.149Z,0.70
2019-02-05T08:15:55.226Z,0.80
2019-02-05T08:18:24.168Z,0.80
2019-02-05T08:20:53.356Z,0.90
2019-02-05T08:23:22.577Z,0.90
2019-02-05T08:25:51.672Z,0.90
2019-02-05T08:28:20.923Z,1.00
2019-02-05T08:30:49.780Z,1.00
2019-02-05T08:33:18.937Z,1.10
2019-02-05T08:35:48.194Z,1.10
2019-02-05T08:38:17.214Z,1.10
2019-02-05T08:40:46.777Z,1.20
2019-02-05T08:43:15.882Z,1.20
2019-02-05T08:45:55.978Z,1.20
2019-02-05T08:48:15.575Z,1.20
2019-02-05T08:50:45.086Z,1.30
2019-02-05T08:53:14.477Z,1.40
2019-02-05T08:55:43.582Z,1.40
2019-02-05T08:58:12.852Z,1.40
2019-02-05T09:00:42.529Z,1.50
2019-02-05T09:03:12.233Z,1.60
2019-02-05T09:05:41.512Z,1.60
2019-02-05T09:08:10.508Z,1.70
2019-02-05T09:10:39.786Z,1.70
2019-02-05T09:13:09.157Z,1.70
2019-02-05T09:15:38.380Z,1.70
2019-02-05T09:18:07.690Z,1.80
2019-02-05T09:20:36.887Z,1.90
2019-02-05T09:23:06.387Z,1.90
2019-02-05T09:25:35.597Z,1.90
2019-02-05T09:28:04.542Z,2.00
2019-02-05T09:30:34.646Z,2.10
2019-02-05T09:33:06.750Z,2.10
2019-02-05T09:35:35.646Z,2.00
2019-02-05T09:38:04.621Z,2.10
2019-02-05T09:40:34.263Z,2.10
2019-02-05T09:43:03.186Z,2.10
2019-02-05T09:45:32.640Z,2.20
2019-02-05T09:48:02.256Z,2.20
2019-02-05T09:50:43.775Z,2.30
2019-02-05T09:53:02.101Z,2.30
2019-02-05T09:55:31.017Z,2.40
2019-02-05T09:57:59.803Z,2.30
2019-02-05T10:00:31.949Z,2.30
2019-02-05T10:03:01.199Z,2.40
2019-02-05T10:05:30.985Z,2.40
2019-02-05T10:08:00.268Z,2.40
2019-02-05T10:10:29.573Z,2.50
2019-02-05T10:12:58.733Z,2.60
2019-02-05T10:15:30.618Z,2.70
2019-02-05T10:18:00.027Z,2.70
2019-02-05T10:20:29.385Z,2.70
2019-02-05T10:23:03.124Z,2.90
2019-02-05T10:25:32.097Z,3.10
2019-02-05T10:28:01.126Z,3.20
2019-02-05T10:30:32.193Z,3.30
2019-02-05T10:33:03.369Z,3.40
2019-02-05T10:35:32.461Z,3.40
2019-02-05T10:38:07.013Z,3.60
2019-02-05T10:40:36.980Z,3.80
2019-02-05T10:43:07.381Z,3.90
2019-02-05T10:45:36.773Z,3.90
2019-02-05T10:48:08.160Z,4.00
2019-02-05T10:50:37.269Z,4.10
2019-02-05T10:53:06.564Z,4.10
2019-02-05T10:55:35.584Z,4.10
2019-02-05T10:58:05.309Z,3.90
2019-02-05T11:00:34.270Z,3.70
2019-02-05T11:03:04.595Z,3.60
2019-02-05T11:05:34.325Z,3.70
2019-02-05T11:08:03.256Z,3.70
2019-02-05T11:10:32.313Z,3.80
2019-02-05T11:13:01.285Z,3.70
2019-02-05T11:15:32.074Z,3.70
2019-02-05T11:18:01.601Z,3.80
2019-02-05T11:20:31.111Z,3.90
2019-02-05T11:23:00.689Z,3.90
2019-02-05T11:25:29.779Z,4.00
2019-02-05T11:27:58.806Z,4.00
2019-02-05T11:30:30.596Z,4.00
2019-02-05T11:32:59.472Z,4.00
2019-02-05T11:35:28.964Z,4.00
2019-02-05T11:37:57.916Z,4.10
2019-02-05T11:40:30.344Z,4.10
2019-02-05T11:42:59.142Z,4.10
2019-02-05T11:45:28.726Z,4.10
2019-02-05T11:47:58.918Z,4.10
2019-02-05T11:50:28.172Z,4.20
2019-02-05T11:52:57.477Z,4.20
2019-02-05T11:55:27.404Z,4.30
2019-02-05T11:57:56.354Z,4.30
2019-02-05T12:00:50.613Z,4.40
2019-02-05T12:03:19.932Z,4.40
2019-02-05T12:05:49.177Z,4.50
2019-02-05T12:08:18.805Z,4.60
2019-02-05T12:10:47.912Z,4.70
2019-02-05T12:13:16.795Z,4.70
2019-02-05T12:15:45.758Z,4.70
2019-02-05T12:18:14.720Z,4.60
2019-02-05T12:20:44.321Z,4.60
2019-02-05T12:23:13.751Z,4.70
2019-02-05T12:25:42.687Z,4.70
2019-02-05T12:28:11.557Z,4.70
2019-02-05T12:30:44.909Z,4.60
2019-02-05T12:33:11.589Z,4.70
2019-02-05T12:35:40.502Z,4.70
2019-02-05T12:38:09.848Z,4.80
2019-02-05T12:40:39.017Z,5.00
2019-02-05T12:43:07.984Z,5.00
2019-02-05T12:45:37.173Z,5.00
2019-02-05T12:48:06.418Z,5.00
2019-02-05T12:50:36.048Z,5.10
2019-02-05T12:53:05.553Z,5.00
2019-02-05T12:55:34.495Z,5.10
2019-02-05T12:58:03.349Z,5.10
2019-02-05T13:00:41.023Z,5.10
2019-02-05T13:03:10.903Z,5.20
2019-02-05T13:05:40.515Z,5.20
2019-02-05T13:08:09.853Z,5.30
2019-02-05T13:10:41.126Z,5.30
2019-02-05T13:13:10.244Z,5.40
2019-02-05T13:15:39.208Z,5.50
2019-02-05T13:18:08.750Z,5.60
2019-02-05T13:20:38.822Z,5.80
2019-02-05T13:23:08.721Z,5.80
2019-02-05T13:25:37.764Z,5.90
2019-02-05T13:28:08.395Z,5.90
2019-02-05T13:30:37.545Z,5.90
2019-02-05T13:33:07.548Z,5.80
2019-02-05T13:35:55.948Z,5.70
2019-02-05T13:38:24.721Z,5.70
2019-02-05T13:40:53.850Z,5.70
2019-02-05T13:43:23.059Z,5.60
2019-02-05T13:45:52.744Z,5.60
2019-02-05T13:48:21.732Z,5.60
2019-02-05T13:50:50.660Z,5.70
2019-02-05T13:53:19.581Z,5.70
2019-02-05T13:55:48.577Z,5.80
2019-02-05T13:58:17.417Z,5.90
2019-02-05T14:00:51.435Z,5.90
2019-02-05T14:03:20.626Z,5.90
2019-02-05T14:05:50.013Z,6.00
2019-02-05T14:08:18.973Z,5.90
2019-02-05T14:10:48.463Z,5.90
2019-02-05T14:13:18.038Z,5.80
2019-02-05T14:15:52.684Z,5.80
2019-02-05T14:18:22.916Z,5.70
2019-02-05T14:20:52.611Z,5.70
2019-02-05T14:23:21.721Z,5.70
2019-02-05T14:25:50.593Z,5.60
2019-02-05T14:28:19.552Z,5.70
2019-02-05T14:30:54.417Z,5.70
2019-02-05T14:33:24.485Z,5.70
2019-02-05T14:35:53.477Z,5.70
2019-02-05T14:38:22.321Z,5.70
2019-02-05T14:40:51.270Z,5.60
2019-02-05T14:43:20.473Z,5.70
2019-02-05T14:45:49.669Z,5.70
2019-02-05T14:48:19.751Z,5.70
2019-02-05T14:50:49.008Z,5.70
2019-02-05T14:53:18.167Z,5.60
2019-02-05T14:55:47.884Z,5.60
2019-02-05T14:58:18.040Z,5.60
2019-02-05T15:00:47.230Z,5.60
2019-02-05T15:03:16.253Z,5.60
2019-02-05T15:05:46.686Z,5.60
2019-02-05T15:08:17.580Z,5.50
2019-02-05T15:10:46.880Z,5.40
2019-02-05T15:13:16.290Z,5.40
2019-02-05T15:15:45.326Z,5.40
2019-02-05T15:18:24.468Z,5.30
2019-02-05T15:20:53.574Z,5.30
2019-02-05T15:23:22.713Z,5.30
2019-02-05T15:25:52.040Z,5.30
2019-02-05T15:28:20.901Z,5.20
2019-02-05T15:30:49.889Z,5.20
2019-02-05T15:33:42.429Z,5.20
2019-02-05T15:36:31.991Z,5.20
2019-02-05T15:39:01.029Z,5.20
2019-02-05T15:41:29.812Z,5.20
2019-02-05T15:44:00.724Z,5.10
2019-02-05T15:46:29.504Z,5.10
2019-02-05T15:48:58.282Z,5.00
2019-02-05T15:51:27.161Z,4.90
2019-02-05T15:53:56.117Z,4.90
2019-02-05T15:56:25.192Z,4.90
2019-02-05T15:58:54.546Z,4.90
2019-02-05T16:01:23.753Z,4.80
2019-02-05T16:03:52.654Z,4.80
2019-02-05T16:06:22.238Z,4.80
2019-02-05T16:08:51.317Z,4.80
2019-02-05T16:11:20.513Z,4.70
2019-02-05T16:13:49.479Z,4.70
2019-02-05T16:16:18.752Z,4.70
2019-02-05T16:18:47.636Z,4.70
2019-02-05T16:21:16.520Z,4.70
2019-02-05T16:23:45.413Z,4.70
2019-02-05T16:26:14.798Z,4.70
2019-02-05T16:28:43.986Z,4.60
2019-02-05T16:31:13.126Z,4.60
2019-02-05T16:33:42.207Z,4.60
2019-02-05T16:36:11.487Z,4.50
2019-02-05T16:38:40.741Z,4.50
2019-02-05T16:41:12.038Z,4.50
2019-02-05T16:43:40.893Z,4.50
2019-02-05T16:46:09.680Z,4.40
2019-02-05T16:48:39.298Z,4.40
2019-02-05T16:51:11.132Z,4.40
2019-02-05T16:53:39.958Z,4.40
2019-02-05T16:56:08.846Z,4.40
2019-02-05T16:58:38.055Z,4.40
2019-02-05T17:01:07.018Z,4.40
2019-02-05T17:03:36.427Z,4.40
2019-02-05T17:06:06.213Z,4.40
2019-02-05T17:08:35.449Z,4.40
2019-02-05T17:11:04.741Z,4.40
2019-02-05T17:13:33.898Z,4.30
2019-02-05T17:16:03.244Z,4.30
2019-02-05T17:18:32.777Z,4.30
2019-02-05T17:21:02.636Z,4.30
2019-02-05T17:23:32.061Z,4.30
2019-02-05T17:26:01.158Z,4.30
2019-02-05T17:28:30.068Z,4.20
2019-02-05T17:30:59.240Z,4.20
2019-02-05T17:33:28.367Z,4.20
2019-02-05T17:35:57.953Z,4.10
2019-02-05T17:38:27.251Z,4.10
2019-02-05T17:40:56.217Z,4.10
2019-02-05T17:43:25.330Z,4.00
2019-02-05T17:45:54.534Z,4.00
2019-02-05T17:48:24.139Z,4.00
2019-02-05T17:50:52.944Z,3.90
2019-02-05T17:53:22.336Z,4.00
2019-02-05T17:55:51.637Z,3.90
2019-02-05T17:58:20.662Z,3.90
2019-02-05T18:00:52.234Z,3.90
2019-02-05T18:03:21.905Z,3.90
2019-02-05T18:05:50.981Z,3.90
2019-02-05T18:08:20.293Z,3.80
2019-02-05T18:10:49.543Z,3.80
2019-02-05T18:13:18.410Z,3.80
2019-02-05T18:15:47.420Z,3.80
2019-02-05T18:18:16.917Z,3.80
2019-02-05T18:20:46.080Z,3.80
2019-02-05T18:23:15.209Z,3.80
2019-02-05T18:25:44.254Z,3.70
2019-02-05T18:28:13.310Z,3.70
2019-02-05T18:30:42.467Z,3.70
2019-02-05T18:33:12.046Z,3.70
2019-02-05T18:35:41.280Z,3.70
2019-02-05T18:38:12.794Z,3.70
2019-02-05T18:40:42.239Z,3.70
2019-02-05T18:43:11.603Z,3.70
2019-02-05T18:45:40.504Z,3.70
2019-02-05T18:48:10.097Z,3.60
2019-02-05T18:50:39.083Z,3.60
2019-02-05T18:53:08.005Z,3.60
2019-02-05T18:55:37.025Z,3.60
2019-02-05T18:58:09.392Z,3.60
2019-02-05T19:00:38.927Z,3.70
2019-02-05T19:03:15.382Z,3.70
2019-02-05T19:05:39.435Z,3.60
2019-02-05T19:08:09.071Z,3.60
2019-02-05T19:10:38.471Z,3.60
2019-02-05T19:13:07.619Z,3.50
2019-02-05T19:15:37.097Z,3.50
2019-02-05T19:18:25.549Z,3.50
2019-02-05T19:20:54.746Z,3.50
2019-02-05T19:23:23.605Z,3.50
2019-02-05T19:25:58.030Z,3.50
2019-02-05T19:28:31.913Z,3.50
2019-02-05T19:31:20.278Z,3.50
2019-02-05T19:33:49.044Z,3.40
2019-02-05T19:36:18.203Z,3.40
2019-02-05T19:38:47.652Z,3.50
2019-02-05T19:41:16.576Z,3.50
2019-02-05T19:43:45.360Z,3.50
2019-02-05T19:46:36.384Z,3.50
2019-02-05T19:49:21.869Z,3.50
2019-02-05T19:51:50.660Z,3.50
2019-02-05T19:54:39.117Z,3.40
2019-02-05T19:57:08.028Z,3.50
2019-02-05T19:59:37.264Z,3.50
2019-02-05T20:02:06.996Z,3.50
2019-02-05T20:04:35.978Z,3.50
2019-02-05T20:07:04.908Z,3.50
2019-02-05T20:09:33.802Z,3.50
2019-02-05T20:12:02.672Z,3.50
2019-02-05T20:14:31.470Z,3.50
2019-02-05T20:17:00.445Z,3.50
2019-02-05T20:19:29.341Z,3.50
2019-02-05T20:21:58.162Z,3.50
2019-02-05T20:24:27.079Z,3.50
2019-02-05T20:26:55.973Z,3.60
2019-02-05T20:29:24.880Z,3.60
2019-02-05T20:31:53.910Z,3.50
2019-02-05T20:34:23.135Z,3.50
2019-02-05T20:36:52.742Z,3.50
2019-02-05T20:39:21.723Z,3.40
2019-02-05T20:41:52.661Z,3.40
2019-02-05T20:44:21.696Z,3.50
2019-02-05T20:46:50.465Z,3.50
2019-02-05T20:49:19.497Z,3.50
2019-02-05T20:51:48.520Z,3.50
2019-02-05T20:54:18.737Z,3.40
2019-02-05T20:56:47.877Z,3.40
2019-02-05T20:59:16.848Z,3.40
2019-02-05T21:01:45.705Z,3.40
2019-02-05T21:04:14.517Z,3.40
2019-02-05T21:06:43.449Z,3.30
2019-02-05T21:09:20.255Z,3.30
2019-02-05T21:11:49.737Z,3.30
2019-02-05T21:14:19.114Z,3.30
2019-02-05T21:16:48.621Z,3.30
2019-02-05T21:19:17.930Z,3.20
2019-02-05T21:21:47.073Z,3.20
2019-02-05T21:24:15.997Z,3.20
2019-02-05T21:26:45.214Z,3.20
2019-02-05T21:29:14.756Z,3.10
2019-02-05T21:31:44.433Z,3.10
2019-02-05T21:34:15.945Z,3.00
2019-02-05T21:36:44.656Z,3.00
2019-02-05T21:39:13.582Z,2.90
2019-02-05T21:41:42.790Z,2.80
2019-02-05T21:44:12.693Z,2.70
2019-02-05T21:46:41.872Z,2.60
2019-02-05T21:49:11.474Z,2.50
2019-02-05T21:51:42.880Z,2.40
2019-02-05T21:54:10.995Z,2.30
2019-02-05T21:56:39.838Z,2.20
2019-02-05T21:59:08.973Z,2.10
2019-02-05T22:01:38.473Z,2.00
2019-02-05T22:04:10.065Z,1.90
2019-02-05T22:06:38.695Z,1.80
2019-02-05T22:09:11.343Z,1.70
2019-02-05T22:11:40.982Z,1.60
2019-02-05T22:14:10.374Z,1.50
2019-02-05T22:16:39.151Z,1.50
2019-02-05T22:19:08.712Z,1.40
2019-02-05T22:21:38.005Z,1.30
2019-02-05T22:24:06.940Z,1.20
2019-02-05T22:26:36.140Z,1.10
2019-02-05T22:29:05.870Z,1.10
2019-02-05T22:31:34.975Z,1.10
2019-02-05T22:34:23.070Z,1.00
2019-02-05T22:36:51.866Z,1.00
2019-02-05T22:39:20.921Z,0.90
2019-02-05T22:41:50.164Z,0.90
2019-02-05T22:44:18.930Z,0.70
2019-02-05T22:46:48.413Z,0.60
2019-02-05T22:49:17.252Z,0.60
2019-02-05T22:51:46.415Z,0.50
2019-02-05T22:54:15.155Z,0.50
2019-02-05T22:56:44.320Z,0.40
2019-02-05T22:59:13.793Z,0.30
2019-02-05T23:01:55.554Z,0.20
2019-02-05T23:05:20.589Z,0.20
2019-02-05T23:07:50.802Z,0.10
2019-02-05T23:10:50.312Z,0.00
2019-02-05T23:13:20.738Z,0.00
2019-02-05T23:15:51.258Z,-0.10
2019-02-05T23:18:21.019Z,-0.10
2019-02-05T23:20:49.904Z,-0.20
2019-02-05T23:23:18.809Z,-0.20
2019-02-05T23:25:48.054Z,-0.20
2019-02-05T23:28:17.401Z,-0.30
2019-02-05T23:30:46.528Z,-0.30
2019-02-05T23:33:16.109Z,-0.30
2019-02-05T23:35:45.878Z,-0.30
2019-02-05T23:38:14.968Z,-0.40
2019-02-05T23:40:44.269Z,-0.50
2019-02-05T23:43:13.262Z,-0.50
2019-02-05T23:45:42.666Z,-0.50
2019-02-05T23:48:11.629Z,-0.50
2019-02-05T23:50:40.875Z,-0.60
2019-02-05T23:53:10.045Z,-0.60
2019-02-05T23:55:39.176Z,-0.70
2019-02-05T23:58:08.214Z,-0.70
